Latham, NY (12110)

4:59 AM EDT on March 27, 2017 (GMT -0400)
KNYNET02 | | Change Station

Elev 358 ft 42.75 °N, 73.75 °W | Updated 23 seconds ago

Light Rain
Light Rain
33.6 °F
Feels Like 28 °F
N
5.6
Wind Variable Wind from South
Gusts 6.9 mph

Today
High -- | Low -- °F
--% Chance of Precip.
Yesterday
High -- | Low -- °F
Precip. -- in
Pressure 30.15 in
Visibility 8.0 miles
Clouds Overcast 700 ft
Windchill 28 °F
Dew Point 33 °F
Humidity 99%
Rainfall 0.04 in
Snow Depth Not available.
6:45 AM 7:15 PM
Waning Crescent, 1% visible
METAR KALB 270851Z 16009KT 8SM -RA OVC007 02/00 A3014 RMK AO2 RAB11 SLP209 P0002 60002 T00220000 56031 $
Pressure 30.15 in
Visibility 8.0 miles
Clouds Overcast 700 ft
Windchill 28 °F
Dew Point 33 °F
Humidity 99%
Rainfall 0.04 in
Snow Depth Not available.
6:45 AM 7:15 PM
Waning Crescent, 1% visible
METAR KALB 270851Z 16009KT 8SM -RA OVC007 02/00 A3014 RMK AO2 RAB11 SLP209 P0002 60002 T00220000 56031 $

Get Severe Weather Alerts

Thanks for signing up!

Be on the lookout for a verification email in your inbox.

You'll start receiving the daily forecast at 8 AM.

×

10-Day Weather Forecast

Almanac

Astronomy

Mar. 27, 2017 Rise Set
Actual Time
Civil Twilight
Nautical Twilight
Astronomical Twilight
Moon
Length of Visible Light
Length of Day
Tomorrow will be .
, % of the Moon is Illuminated

Today's Extremes

State Highs State Lows

Community

WunderPhotos

Upload Photos

1,962,540 photos uploaded!

WunderBlog® & News

Nearby

Air Quality

  Air Quality AQ Index Pollutant
Not available.

Snow Depth

Station Depth Elevation

Earthquake Activity

City Distance Mag. Time & Date
Minimum magnitude displayed is 2.5.

Earthquake Activity

City Distance Mag. Time & Date
Minimum magnitude displayed is 2.5.

Coastal Water Temperatures

Place Temperature

Stations

Nearby Weather Stations

Station Location Temp. Windchill Dew Point Humidity Wind Precip. Elev Updated Type
                   

Watches & Warnings

There are currently no watches in effect.